sensor_id;sensor_type;location;lat;lon;timestamp;pressure;altitude;pressure_sealevel;temperature;humidity
46448;BME280;32145;50.390;30.778;2022-07-18T00:01:08;100452.97;;;13.73;70.36
46448;BME280;32145;50.390;30.778;2022-07-18T00:03:52;100452.38;;;13.71;70.57
46448;BME280;32145;50.390;30.778;2022-07-18T00:06:36;100452.88;;;13.68;70.75
46448;BME280;32145;50.390;30.778;2022-07-18T00:09:20;100455.00;;;13.66;70.95
46448;BME280;32145;50.390;30.778;2022-07-18T00:12:07;100457.97;;;13.64;71.20
46448;BME280;32145;50.390;30.778;2022-07-18T00:14:52;100450.53;;;13.60;71.18
46448;BME280;32145;50.390;30.778;2022-07-18T00:17:36;100445.56;;;13.57;71.46
46448;BME280;32145;50.390;30.778;2022-07-18T00:20:20;100449.84;;;13.52;71.32
46448;BME280;32145;50.390;30.778;2022-07-18T00:23:04;100454.69;;;13.50;71.73
46448;BME280;32145;50.390;30.778;2022-07-18T00:25:48;100452.38;;;13.47;71.85
46448;BME280;32145;50.390;30.778;2022-07-18T00:28:33;100449.09;;;13.45;71.95
46448;BME280;32145;50.390;30.778;2022-07-18T00:31:17;100450.41;;;13.43;72.12
46448;BME280;32145;50.390;30.778;2022-07-18T00:34:02;100451.22;;;13.43;72.00
46448;BME280;32145;50.390;30.778;2022-07-18T00:36:46;100449.56;;;13.42;72.20
46448;BME280;32145;50.390;30.778;2022-07-18T00:39:30;100456.66;;;13.43;72.30
46448;BME280;32145;50.390;30.778;2022-07-18T00:42:14;100462.59;;;13.40;72.37
46448;BME280;32145;50.390;30.778;2022-07-18T00:45:00;100457.25;;;13.33;72.53
46448;BME280;32145;50.390;30.778;2022-07-18T00:47:44;100456.91;;;13.30;72.63
46448;BME280;32145;50.390;30.778;2022-07-18T00:50:28;100454.09;;;13.24;72.90
46448;BME280;32145;50.390;30.778;2022-07-18T00:53:13;100461.06;;;13.20;72.95
46448;BME280;32145;50.390;30.778;2022-07-18T00:55:58;100452.78;;;13.15;73.02
46448;BME280;32145;50.390;30.778;2022-07-18T00:58:43;100455.38;;;13.10;73.36
46448;BME280;32145;50.390;30.778;2022-07-18T01:01:29;100458.56;;;13.07;73.56
46448;BME280;32145;50.390;30.778;2022-07-18T01:04:15;100457.16;;;13.04;73.66
46448;BME280;32145;50.390;30.778;2022-07-18T01:07:00;100454.31;;;12.99;74.00
46448;BME280;32145;50.390;30.778;2022-07-18T01:09:44;100466.00;;;12.99;73.90
46448;BME280;32145;50.390;30.778;2022-07-18T01:12:28;100465.19;;;12.99;73.97
46448;BME280;32145;50.390;30.778;2022-07-18T01:15:13;100474.66;;;12.96;74.23
46448;BME280;32145;50.390;30.778;2022-07-18T01:17:58;100474.66;;;12.96;74.48
46448;BME280;32145;50.390;30.778;2022-07-18T01:20:44;100479.50;;;12.94;74.18
46448;BME280;32145;50.390;30.778;2022-07-18T01:23:28;100481.66;;;12.92;74.55
46448;BME280;32145;50.390;30.778;2022-07-18T01:26:13;100477.47;;;12.89;74.58
46448;BME280;32145;50.390;30.778;2022-07-18T01:28:58;100475.25;;;12.86;74.90
46448;BME280;32145;50.390;30.778;2022-07-18T01:31:42;100476.53;;;12.84;74.94
46448;BME280;32145;50.390;30.778;2022-07-18T01:34:26;100484.94;;;12.82;74.77
46448;BME280;32145;50.390;30.778;2022-07-18T01:37:12;100480.78;;;12.80;75.02
46448;BME280;32145;50.390;30.778;2022-07-18T01:39:56;100478.31;;;12.78;75.11
46448;BME280;32145;50.390;30.778;2022-07-18T01:42:41;100479.97;;;12.79;74.89
46448;BME280;32145;50.390;30.778;2022-07-18T01:45:25;100484.09;;;12.82;75.10
46448;BME280;32145;50.390;30.778;2022-07-18T01:48:09;100485.75;;;12.83;74.92
46448;BME280;32145;50.390;30.778;2022-07-18T01:50:53;100491.56;;;12.86;75.19
46448;BME280;32145;50.390;30.778;2022-07-18T01:53:38;100483.53;;;12.92;75.01
46448;BME280;32145;50.390;30.778;2022-07-18T01:56:23;100488.75;;;12.93;74.89
46448;BME280;32145;50.390;30.778;2022-07-18T01:59:07;100486.03;;;12.93;75.04
46448;BME280;32145;50.390;30.778;2022-07-18T02:01:51;100494.41;;;12.92;75.16
46448;BME280;32145;50.390;30.778;2022-07-18T02:04:35;100499.50;;;12.88;75.10
46448;BME280;32145;50.390;30.778;2022-07-18T02:07:20;100497.25;;;12.85;75.13
46448;BME280;32145;50.390;30.778;2022-07-18T02:10:07;100507.53;;;12.83;75.46
46448;BME280;32145;50.390;30.778;2022-07-18T02:12:52;100504.00;;;12.82;75.39
46448;BME280;32145;50.390;30.778;2022-07-18T02:15:36;100501.50;;;12.81;75.23
46448;BME280;32145;50.390;30.778;2022-07-18T02:18:20;100499.59;;;12.81;75.63
46448;BME280;32145;50.390;30.778;2022-07-18T02:21:05;100499.59;;;12.81;75.31
46448;BME280;32145;50.390;30.778;2022-07-18T02:23:49;100506.31;;;12.79;75.58
46448;BME280;32145;50.390;30.778;2022-07-18T02:26:35;100506.78;;;12.75;75.47
46448;BME280;32145;50.390;30.778;2022-07-18T02:29:19;100512.22;;;12.75;75.54
46448;BME280;32145;50.390;30.778;2022-07-18T02:32:04;100502.19;;;12.76;75.63
46448;BME280;32145;50.390;30.778;2022-07-18T02:34:48;100499.69;;;12.74;75.62
46448;BME280;32145;50.390;30.778;2022-07-18T02:37:32;100512.22;;;12.75;75.60
46448;BME280;32145;50.390;30.778;2022-07-18T02:40:16;100508.47;;;12.76;75.88
46448;BME280;32145;50.390;30.778;2022-07-18T02:43:02;100503.03;;;12.76;75.72
46448;BME280;32145;50.390;30.778;2022-07-18T02:45:46;100512.72;;;12.72;75.95
46448;BME280;32145;50.390;30.778;2022-07-18T02:48:30;100503.94;;;12.70;75.89
46448;BME280;32145;50.390;30.778;2022-07-18T02:51:14;100513.75;;;12.71;75.97
46448;BME280;32145;50.390;30.778;2022-07-18T02:53:58;100510.56;;;12.74;76.16
46448;BME280;32145;50.390;30.778;2022-07-18T02:56:42;100504.69;;;12.78;75.82
46448;BME280;32145;50.390;30.778;2022-07-18T02:59:28;100512.38;;;12.81;75.99
46448;BME280;32145;50.390;30.778;2022-07-18T03:02:13;100512.59;;;12.79;75.91
46448;BME280;32145;50.390;30.778;2022-07-18T03:04:57;100518.28;;;12.78;76.04
46448;BME280;32145;50.390;30.778;2022-07-18T03:07:40;100515.09;;;12.81;76.07
46448;BME280;32145;50.390;30.778;2022-07-18T03:10:25;100515.44;;;12.84;76.02
46448;BME280;32145;50.390;30.778;2022-07-18T03:13:09;100517.25;;;12.91;75.91
46448;BME280;32145;50.390;30.778;2022-07-18T03:15:54;100521.97;;;12.95;75.73
46448;BME280;32145;50.390;30.778;2022-07-18T03:18:38;100535.84;;;13.06;76.05
46448;BME280;32145;50.390;30.778;2022-07-18T03:21:22;100534.47;;;13.39;75.68
46448;BME280;32145;50.390;30.778;2022-07-18T03:24:06;100536.38;;;13.50;75.11
46448;BME280;32145;50.390;30.778;2022-07-18T03:26:50;100538.28;;;13.62;75.21
46448;BME280;32145;50.390;30.778;2022-07-18T03:29:34;100537.03;;;14.05;75.04
46448;BME280;32145;50.390;30.778;2022-07-18T03:32:20;100544.63;;;14.74;73.59
46448;BME280;32145;50.390;30.778;2022-07-18T03:35:04;100543.38;;;15.11;71.86
46448;BME280;32145;50.390;30.778;2022-07-18T03:37:48;100556.75;;;15.64;70.88
46448;BME280;32145;50.390;30.778;2022-07-18T03:40:33;100549.03;;;16.17;68.21
46448;BME280;32145;50.390;30.778;2022-07-18T03:43:17;100548.13;;;16.61;66.66
46448;BME280;32145;50.390;30.778;2022-07-18T03:46:01;100551.25;;;16.98;65.12
46448;BME280;32145;50.390;30.778;2022-07-18T03:48:46;100547.56;;;17.15;63.56
46448;BME280;32145;50.390;30.778;2022-07-18T03:51:31;100545.59;;;17.43;63.63
46448;BME280;32145;50.390;30.778;2022-07-18T03:54:15;100556.09;;;17.56;62.11
46448;BME280;32145;50.390;30.778;2022-07-18T03:56:59;100553.09;;;17.63;61.99
46448;BME280;32145;50.390;30.778;2022-07-18T03:59:43;100561.38;;;17.68;61.49
46448;BME280;32145;50.390;30.778;2022-07-18T04:02:28;100560.13;;;17.86;61.38
46448;BME280;32145;50.390;30.778;2022-07-18T04:05:15;100560.63;;;17.83;61.01
46448;BME280;32145;50.390;30.778;2022-07-18T04:07:59;100564.25;;;17.46;61.04
46448;BME280;32145;50.390;30.778;2022-07-18T04:10:43;100560.28;;;17.26;61.64
46448;BME280;32145;50.390;30.778;2022-07-18T04:13:27;100560.44;;;16.86;61.95
46448;BME280;32145;50.390;30.778;2022-07-18T04:16:11;100567.72;;;16.48;62.72
46448;BME280;32145;50.390;30.778;2022-07-18T04:18:55;100569.16;;;16.33;63.59
46448;BME280;32145;50.390;30.778;2022-07-18T04:21:40;100574.91;;;16.09;64.22
46448;BME280;32145;50.390;30.778;2022-07-18T04:24:24;100568.38;;;15.93;64.93
46448;BME280;32145;50.390;30.778;2022-07-18T04:27:08;100573.44;;;15.84;64.95
46448;BME280;32145;50.390;30.778;2022-07-18T04:29:53;100565.50;;;15.83;65.07
46448;BME280;32145;50.390;30.778;2022-07-18T04:32:37;100577.75;;;15.80;65.29
46448;BME280;32145;50.390;30.778;2022-07-18T04:35:21;100573.69;;;15.83;65.64
46448;BME280;32145;50.390;30.778;2022-07-18T04:38:08;100577.41;;;15.94;65.19
46448;BME280;32145;50.390;30.778;2022-07-18T04:40:53;100572.09;;;16.04;64.91
46448;BME280;32145;50.390;30.778;2022-07-18T04:43:37;100577.00;;;16.02;64.78
46448;BME280;32145;50.390;30.778;2022-07-18T04:46:21;100567.78;;;16.08;64.79
46448;BME280;32145;50.390;30.778;2022-07-18T04:49:05;100562.91;;;16.10;64.60
46448;BME280;32145;50.390;30.778;2022-07-18T04:51:49;100580.38;;;16.09;64.22
46448;BME280;32145;50.390;30.778;2022-07-18T04:54:35;100574.59;;;16.06;64.35
46448;BME280;32145;50.390;30.778;2022-07-18T04:57:19;100572.09;;;16.04;64.72
46448;BME280;32145;50.390;30.778;2022-07-18T05:00:05;100577.06;;;16.07;64.64
46448;BME280;32145;50.390;30.778;2022-07-18T05:02:51;100570.56;;;16.14;64.40
46448;BME280;32145;50.390;30.778;2022-07-18T05:05:36;100570.41;;;16.20;64.37
46448;BME280;32145;50.390;30.778;2022-07-18T05:08:20;100562.50;;;16.24;64.11
46448;BME280;32145;50.390;30.778;2022-07-18T05:11:07;100576.31;;;16.34;64.15
46448;BME280;32145;50.390;30.778;2022-07-18T05:13:51;100573.63;;;16.40;63.58
46448;BME280;32145;50.390;30.778;2022-07-18T05:16:35;100567.97;;;16.46;63.75
46448;BME280;32145;50.390;30.778;2022-07-18T05:19:19;100562.03;;;16.55;63.38
46448;BME280;32145;50.390;30.778;2022-07-18T05:22:03;100573.34;;;16.64;63.33
46448;BME280;32145;50.390;30.778;2022-07-18T05:24:47;100566.03;;;16.69;63.06
46448;BME280;32145;50.390;30.778;2022-07-18T05:27:35;100568.00;;;16.74;62.94
46448;BME280;32145;50.390;30.778;2022-07-18T05:30:20;100567.47;;;16.77;62.87
46448;BME280;32145;50.390;30.778;2022-07-18T05:33:04;100570.56;;;16.86;62.60
46448;BME280;32145;50.390;30.778;2022-07-18T05:35:48;100576.66;;;16.93;61.85
46448;BME280;32145;50.390;30.778;2022-07-18T05:38:32;100567.09;;;16.96;62.00
46448;BME280;32145;50.390;30.778;2022-07-18T05:41:16;100567.69;;;16.98;62.05
46448;BME280;32145;50.390;30.778;2022-07-18T05:44:01;100570.53;;;17.08;61.72
46448;BME280;32145;50.390;30.778;2022-07-18T05:46:46;100560.75;;;17.18;61.61
46448;BME280;32145;50.390;30.778;2022-07-18T05:49:30;100568.44;;;17.21;61.21
46448;BME280;32145;50.390;30.778;2022-07-18T05:52:14;100568.16;;;17.22;61.04
46448;BME280;32145;50.390;30.778;2022-07-18T05:54:58;100576.75;;;17.31;60.84
46448;BME280;32145;50.390;30.778;2022-07-18T05:57:43;100576.22;;;17.34;59.93
46448;BME280;32145;50.390;30.778;2022-07-18T06:00:28;100579.00;;;17.39;60.42
46448;BME280;32145;50.390;30.778;2022-07-18T06:03:12;100571.34;;;17.42;59.95
46448;BME280;32145;50.390;30.778;2022-07-18T06:05:56;100565.31;;;17.45;60.25
46448;BME280;32145;50.390;30.778;2022-07-18T06:08:40;100562.66;;;17.55;60.04
46448;BME280;32145;50.390;30.778;2022-07-18T06:11:25;100555.66;;;17.70;60.14
46448;BME280;32145;50.390;30.778;2022-07-18T06:14:09;100565.00;;;17.79;59.65
46448;BME280;32145;50.390;30.778;2022-07-18T06:16:54;100562.84;;;17.86;59.28
46448;BME280;32145;50.390;30.778;2022-07-18T06:19:39;100568.13;;;17.98;59.61
46448;BME280;32145;50.390;30.778;2022-07-18T06:22:24;100576.66;;;18.07;58.89
46448;BME280;32145;50.390;30.778;2022-07-18T06:25:09;100565.78;;;18.18;58.61
46448;BME280;32145;50.390;30.778;2022-07-18T06:27:55;100572.97;;;18.29;57.97
46448;BME280;32145;50.390;30.778;2022-07-18T06:30:39;100569.38;;;18.23;57.56
46448;BME280;32145;50.390;30.778;2022-07-18T06:33:25;100567.44;;;18.24;57.32
46448;BME280;32145;50.390;30.778;2022-07-18T06:36:09;100565.78;;;18.23;57.35
46448;BME280;32145;50.390;30.778;2022-07-18T06:38:54;100566.84;;;18.16;56.69
46448;BME280;32145;50.390;30.778;2022-07-18T06:41:38;100560.31;;;18.18;57.12
46448;BME280;32145;50.390;30.778;2022-07-18T06:44:22;100562.53;;;18.26;57.10
46448;BME280;32145;50.390;30.778;2022-07-18T06:47:06;100560.88;;;18.25;56.31
46448;BME280;32145;50.390;30.778;2022-07-18T06:49:52;100553.72;;;18.24;56.22
46448;BME280;32145;50.390;30.778;2022-07-18T06:52:38;100558.16;;;18.30;56.35
46448;BME280;32145;50.390;30.778;2022-07-18T06:55:22;100556.81;;;18.43;56.74
46448;BME280;32145;50.390;30.778;2022-07-18T06:58:06;100555.47;;;18.56;56.21
46448;BME280;32145;50.390;30.778;2022-07-18T07:00:50;100552.22;;;18.75;55.89
46448;BME280;32145;50.390;30.778;2022-07-18T07:03:35;100550.31;;;18.75;55.30
46448;BME280;32145;50.390;30.778;2022-07-18T07:06:20;100559.09;;;18.83;55.32
46448;BME280;32145;50.390;30.778;2022-07-18T07:09:04;100559.94;;;18.93;54.88
46448;BME280;32145;50.390;30.778;2022-07-18T07:11:50;100551.69;;;18.88;54.86
46448;BME280;32145;50.390;30.778;2022-07-18T07:14:34;100556.91;;;18.85;54.67
46448;BME280;32145;50.390;30.778;2022-07-18T07:17:19;100552.50;;;18.89;54.89
46448;BME280;32145;50.390;30.778;2022-07-18T07:20:04;100561.03;;;18.98;54.82
46448;BME280;32145;50.390;30.778;2022-07-18T07:22:52;100560.50;;;19.11;54.91
46448;BME280;32145;50.390;30.778;2022-07-18T07:25:37;100562.72;;;19.30;54.43
46448;BME280;32145;50.390;30.778;2022-07-18T07:28:21;100563.56;;;19.30;53.80
46448;BME280;32145;50.390;30.778;2022-07-18T07:31:05;100565.47;;;19.40;53.63
46448;BME280;32145;50.390;30.778;2022-07-18T07:33:50;100562.69;;;19.51;53.43
46448;BME280;32145;50.390;30.778;2022-07-18T07:36:36;100566.00;;;19.48;53.27
46448;BME280;32145;50.390;30.778;2022-07-18T07:39:21;100572.88;;;19.55;54.10
46448;BME280;32145;50.390;30.778;2022-07-18T07:42:05;100575.88;;;19.64;53.35
46448;BME280;32145;50.390;30.778;2022-07-18T07:44:49;100567.59;;;19.75;52.38
46448;BME280;32145;50.390;30.778;2022-07-18T07:47:34;100564.81;;;19.90;52.51
46448;BME280;32145;50.390;30.778;2022-07-18T07:50:18;100566.16;;;20.08;51.92
46448;BME280;32145;50.390;30.778;2022-07-18T07:53:02;100568.06;;;20.13;51.54
46448;BME280;32145;50.390;30.778;2022-07-18T07:55:48;100574.69;;;20.12;50.06
46448;BME280;32145;50.390;30.778;2022-07-18T07:58:32;100563.69;;;20.07;50.14
46448;BME280;32145;50.390;30.778;2022-07-18T08:01:15;100573.53;;;20.18;50.25
46448;BME280;32145;50.390;30.778;2022-07-18T08:03:59;100574.03;;;20.31;50.28
46448;BME280;32145;50.390;30.778;2022-07-18T08:06:43;100565.78;;;20.31;49.52
46448;BME280;32145;50.390;30.778;2022-07-18T08:09:27;100572.91;;;20.37;49.49
46448;BME280;32145;50.390;30.778;2022-07-18T08:12:13;100580.06;;;20.38;49.91
46448;BME280;32145;50.390;30.778;2022-07-18T08:14:57;100573.13;;;20.51;49.56
46448;BME280;32145;50.390;30.778;2022-07-18T08:17:41;100570.56;;;20.65;48.86
46448;BME280;32145;50.390;30.778;2022-07-18T08:20:25;100575.47;;;20.73;48.87
46448;BME280;32145;50.390;30.778;2022-07-18T08:23:11;100569.28;;;20.97;48.63
46448;BME280;32145;50.390;30.778;2022-07-18T08:25:57;100573.16;;;20.96;48.16
46448;BME280;32145;50.390;30.778;2022-07-18T08:28:42;100577.59;;;20.92;48.38
46448;BME280;32145;50.390;30.778;2022-07-18T08:31:27;100573.50;;;20.79;48.42
46448;BME280;32145;50.390;30.778;2022-07-18T08:34:10;100569.78;;;20.59;47.79
46448;BME280;32145;50.390;30.778;2022-07-18T08:36:54;100572.25;;;20.61;48.10
46448;BME280;32145;50.390;30.778;2022-07-18T08:39:38;100563.34;;;20.74;47.52
46448;BME280;32145;50.390;30.778;2022-07-18T08:42:25;100571.88;;;20.73;46.67
46448;BME280;32145;50.390;30.778;2022-07-18T08:45:11;100566.78;;;20.56;46.61
46448;BME280;32145;50.390;30.778;2022-07-18T08:47:55;100571.81;;;20.43;47.88
46448;BME280;32145;50.390;30.778;2022-07-18T08:50:42;100574.16;;;20.66;48.15
46448;BME280;32145;50.390;30.778;2022-07-18T08:53:26;100567.63;;;20.96;47.96
46448;BME280;32145;50.390;30.778;2022-07-18T08:56:11;100577.34;;;21.23;47.22
46448;BME280;32145;50.390;30.778;2022-07-18T08:58:55;100562.25;;;21.45;45.80
46448;BME280;32145;50.390;30.778;2022-07-18T09:01:40;100571.50;;;21.60;44.79
46448;BME280;32145;50.390;30.778;2022-07-18T09:04:32;100566.28;;;21.58;44.84
46448;BME280;32145;50.390;30.778;2022-07-18T09:07:23;100557.72;;;21.60;44.43
46448;BME280;32145;50.390;30.778;2022-07-18T09:10:08;100558.97;;;21.43;45.22
46448;BME280;32145;50.390;30.778;2022-07-18T09:12:56;100561.75;;;21.38;45.31
46448;BME280;32145;50.390;30.778;2022-07-18T09:15:59;100559.84;;;21.68;44.72
46448;BME280;32145;50.390;30.778;2022-07-18T09:18:48;100559.63;;;21.89;43.41
46448;BME280;32145;50.390;30.778;2022-07-18T09:21:35;100551.28;;;21.94;42.92
46448;BME280;32145;50.390;30.778;2022-07-18T09:24:22;100565.25;;;22.03;42.82
46448;BME280;32145;50.390;30.778;2022-07-18T09:27:22;100550.34;;;22.04;42.60
46448;BME280;32145;50.390;30.778;2022-07-18T09:30:24;100550.69;;;22.22;42.24
46448;BME280;32145;50.390;30.778;2022-07-18T09:33:09;100556.44;;;22.25;42.89
46448;BME280;32145;50.390;30.778;2022-07-18T09:35:55;100565.38;;;22.17;43.34
46448;BME280;32145;50.390;30.778;2022-07-18T09:38:40;100561.44;;;21.99;43.57
46448;BME280;32145;50.390;30.778;2022-07-18T09:41:25;100577.59;;;22.11;43.89
46448;BME280;32145;50.390;30.778;2022-07-18T09:44:13;100558.69;;;22.23;41.72
46448;BME280;32145;50.390;30.778;2022-07-18T09:46:58;100547.47;;;22.34;40.35
46448;BME280;32145;50.390;30.778;2022-07-18T09:49:43;100545.03;;;22.32;40.51
46448;BME280;32145;50.390;30.778;2022-07-18T09:52:28;100556.50;;;22.20;41.13
46448;BME280;32145;50.390;30.778;2022-07-18T09:55:13;100557.06;;;21.98;41.27
46448;BME280;32145;50.390;30.778;2022-07-18T09:57:58;100561.97;;;21.76;41.79
46448;BME280;32145;50.390;30.778;2022-07-18T10:00:43;100557.22;;;21.53;42.62
46448;BME280;32145;50.390;30.778;2022-07-18T10:03:28;100564.81;;;21.36;43.77
46448;BME280;32145;50.390;30.778;2022-07-18T10:06:12;100554.41;;;21.58;43.95
46448;BME280;32145;50.390;30.778;2022-07-18T10:08:58;100551.28;;;21.94;43.48
46448;BME280;32145;50.390;30.778;2022-07-18T10:11:42;100546.44;;;22.30;43.22
46448;BME280;32145;50.390;30.778;2022-07-18T10:14:27;100548.09;;;22.50;42.38
46448;BME280;32145;50.390;30.778;2022-07-18T10:17:12;100554.25;;;22.66;42.50
46448;BME280;32145;50.390;30.778;2022-07-18T10:20:02;100555.22;;;22.75;41.55
46448;BME280;32145;50.390;30.778;2022-07-18T10:22:47;100552.38;;;22.42;41.49
46448;BME280;32145;50.390;30.778;2022-07-18T10:25:32;100556.69;;;22.05;42.17
46448;BME280;32145;50.390;30.778;2022-07-18T10:28:17;100551.53;;;21.73;43.23
46448;BME280;32145;50.390;30.778;2022-07-18T10:31:12;100552.63;;;21.72;44.01
46448;BME280;32145;50.390;30.778;2022-07-18T10:34:09;100557.41;;;21.91;44.74
46448;BME280;32145;50.390;30.778;2022-07-18T10:37:07;100556.78;;;22.19;43.57
46448;BME280;32145;50.390;30.778;2022-07-18T10:39:52;100549.91;;;22.40;42.28
46448;BME280;32145;50.390;30.778;2022-07-18T10:42:37;100555.75;;;22.58;42.46
46448;BME280;32145;50.390;30.778;2022-07-18T10:45:42;100536.25;;;22.69;40.12
46448;BME280;32145;50.390;30.778;2022-07-18T10:48:55;100536.75;;;22.90;40.49
46448;BME280;32145;50.390;30.778;2022-07-18T10:51:39;100531.97;;;22.76;39.56
46448;BME280;32145;50.390;30.778;2022-07-18T10:54:29;100536.22;;;22.49;39.19
46448;BME280;32145;50.390;30.778;2022-07-18T10:57:12;100535.28;;;22.15;38.72
46448;BME280;32145;50.390;30.778;2022-07-18T11:00:03;100534.03;;;21.83;39.50
46448;BME280;32145;50.390;30.778;2022-07-18T11:03:04;100537.03;;;21.87;40.82
46448;BME280;32145;50.390;30.778;2022-07-18T11:05:50;100535.34;;;21.91;40.86
46448;BME280;32145;50.390;30.778;2022-07-18T11:08:35;100535.81;;;22.18;40.91
46448;BME280;32145;50.390;30.778;2022-07-18T11:11:20;100526.69;;;22.61;40.71
46448;BME280;32145;50.390;30.778;2022-07-18T11:14:04;100527.53;;;22.95;40.20
46448;BME280;32145;50.390;30.778;2022-07-18T11:17:07;100517.75;;;23.02;40.31
46448;BME280;32145;50.390;30.778;2022-07-18T11:20:24;100527.09;;;22.87;38.62
46448;BME280;32145;50.390;30.778;2022-07-18T11:23:18;100531.59;;;23.02;39.06
46448;BME280;32145;50.390;30.778;2022-07-18T11:26:02;100528.25;;;23.20;39.00
46448;BME280;32145;50.390;30.778;2022-07-18T11:28:47;100527.91;;;23.40;39.23
46448;BME280;32145;50.390;30.778;2022-07-18T11:31:41;100520.25;;;23.18;38.85
46448;BME280;32145;50.390;30.778;2022-07-18T11:34:27;100534.69;;;23.15;38.92
46448;BME280;32145;50.390;30.778;2022-07-18T11:37:13;100523.28;;;23.36;38.09
46448;BME280;32145;50.390;30.778;2022-07-18T11:40:04;100515.22;;;23.53;38.29
46448;BME280;32145;50.390;30.778;2022-07-18T11:42:48;100502.41;;;23.86;39.13
46448;BME280;32145;50.390;30.778;2022-07-18T11:45:32;100514.94;;;23.97;38.22
46448;BME280;32145;50.390;30.778;2022-07-18T11:48:20;100510.63;;;23.77;38.22
46448;BME280;32145;50.390;30.778;2022-07-18T11:51:09;100510.09;;;23.61;38.40
46448;BME280;32145;50.390;30.778;2022-07-18T11:53:54;100504.94;;;23.40;37.79
46448;BME280;32145;50.390;30.778;2022-07-18T11:56:45;100500.16;;;23.12;38.25
46448;BME280;32145;50.390;30.778;2022-07-18T11:59:38;100499.94;;;23.09;38.57
46448;BME280;32145;50.390;30.778;2022-07-18T12:05:45;100515.13;;;22.59;40.14
46448;BME280;32145;50.390;30.778;2022-07-18T12:08:33;100509.50;;;22.45;40.69
46448;BME280;32145;50.390;30.778;2022-07-18T12:11:25;100500.59;;;22.28;40.88
46448;BME280;32145;50.390;30.778;2022-07-18T12:14:14;100509.03;;;22.18;41.13
46448;BME280;32145;50.390;30.778;2022-07-18T12:16:59;100510.53;;;22.10;41.53
46448;BME280;32145;50.390;30.778;2022-07-18T12:19:43;100510.53;;;22.10;41.74
46448;BME280;32145;50.390;30.778;2022-07-18T12:22:27;100503.28;;;22.34;41.56
46448;BME280;32145;50.390;30.778;2022-07-18T12:25:13;100499.72;;;22.72;40.69
46448;BME280;32145;50.390;30.778;2022-07-18T12:28:11;100497.00;;;22.86;40.16
46448;BME280;32145;50.390;30.778;2022-07-18T12:30:55;100488.03;;;22.94;39.18
46448;BME280;32145;50.390;30.778;2022-07-18T12:33:44;100506.19;;;23.14;38.53
46448;BME280;32145;50.390;30.778;2022-07-18T12:36:28;100495.38;;;23.18;38.38
46448;BME280;32145;50.390;30.778;2022-07-18T12:39:13;100498.91;;;23.04;38.30
46448;BME280;32145;50.390;30.778;2022-07-18T12:42:27;100513.59;;;22.86;39.04
46448;BME280;32145;50.390;30.778;2022-07-18T12:45:12;100526.00;;;22.69;39.42
46448;BME280;32145;50.390;30.778;2022-07-18T12:47:57;100531.94;;;22.19;44.73
46448;BME280;32145;50.390;30.778;2022-07-18T12:50:42;100546.41;;;21.32;48.86
46448;BME280;32145;50.390;30.778;2022-07-18T12:53:27;100553.00;;;20.56;51.73
46448;BME280;32145;50.390;30.778;2022-07-18T12:56:11;100537.72;;;20.29;53.55
46448;BME280;32145;50.390;30.778;2022-07-18T12:58:57;100518.50;;;20.24;54.10
46448;BME280;32145;50.390;30.778;2022-07-18T13:01:44;100523.78;;;20.55;55.33
46448;BME280;32145;50.390;30.778;2022-07-18T13:04:28;100520.47;;;21.33;53.57
46448;BME280;32145;50.390;30.778;2022-07-18T13:07:13;100520.81;;;22.05;51.28
46448;BME280;32145;50.390;30.778;2022-07-18T13:09:57;100515.16;;;22.53;49.77
46448;BME280;32145;50.390;30.778;2022-07-18T13:12:40;100512.94;;;22.94;48.31
46448;BME280;32145;50.390;30.778;2022-07-18T13:15:28;100519.53;;;23.12;44.87
46448;BME280;32145;50.390;30.778;2022-07-18T13:18:12;100515.97;;;23.26;42.85
46448;BME280;32145;50.390;30.778;2022-07-18T13:20:57;100515.91;;;23.45;41.18
46448;BME280;32145;50.390;30.778;2022-07-18T13:23:41;100517.28;;;23.62;40.52
46448;BME280;32145;50.390;30.778;2022-07-18T13:26:25;100517.28;;;23.76;41.09
46448;BME280;32145;50.390;30.778;2022-07-18T13:29:09;100506.72;;;23.78;40.94
46448;BME280;32145;50.390;30.778;2022-07-18T13:31:54;100514.00;;;23.88;40.65
46448;BME280;32145;50.390;30.778;2022-07-18T13:34:38;100508.25;;;23.98;39.90
46448;BME280;32145;50.390;30.778;2022-07-18T13:37:22;100505.50;;;23.84;40.14
46448;BME280;32145;50.390;30.778;2022-07-18T13:40:07;100515.00;;;23.50;39.95
46448;BME280;32145;50.390;30.778;2022-07-18T13:42:52;100517.56;;;23.13;40.76
46448;BME280;32145;50.390;30.778;2022-07-18T13:45:36;100515.31;;;22.82;41.36
46448;BME280;32145;50.390;30.778;2022-07-18T13:48:21;100518.25;;;22.71;41.94
46448;BME280;32145;50.390;30.778;2022-07-18T13:51:05;100517.44;;;22.71;41.99
46448;BME280;32145;50.390;30.778;2022-07-18T13:53:50;100515.88;;;22.64;41.58
46448;BME280;32145;50.390;30.778;2022-07-18T13:56:33;100512.28;;;22.64;42.03
46448;BME280;32145;50.390;30.778;2022-07-18T13:59:18;100501.97;;;22.70;41.55
46448;BME280;32145;50.390;30.778;2022-07-18T14:02:02;100505.63;;;22.65;41.67
46448;BME280;32145;50.390;30.778;2022-07-18T14:04:47;100512.19;;;22.50;41.39
46448;BME280;32145;50.390;30.778;2022-07-18T14:07:31;100512.56;;;22.43;41.96
46448;BME280;32145;50.390;30.778;2022-07-18T14:10:15;100512.63;;;22.38;42.29
46448;BME280;32145;50.390;30.778;2022-07-18T14:13:00;100514.03;;;22.35;42.33
46448;BME280;32145;50.390;30.778;2022-07-18T14:15:46;100521.81;;;22.33;42.29
46448;BME280;32145;50.390;30.778;2022-07-18T14:18:30;100520.47;;;22.31;41.98